Time;durP1;ratioP1;P1;durP2;ratioP2;P2;SDS_P1;SDS_P2;PMS_P1;PMS_P2;Temp;Humidity;BMP_temperature;BMP_pressure;BME280_temperature;BME280_humidity;BME280_pressure;Samples;Min_cycle;Max_cycle;Signal;HPM_P1;HPM_P2
2021/06/03 00:01:48;;;;;;;9.18;2.70;;;;;;;;;;5079959;28;20107;-56
2021/06/03 00:04:14;;;;;;;8.45;2.60;;;;;;;;;;5077175;28;20049;-56
2021/06/03 00:06:40;;;;;;;5.22;2.20;;;;;;;;;;5081318;28;20048;-59
2021/06/03 00:09:08;;;;;;;8.15;2.40;;;;;;;;;;5077829;28;20052;-59
2021/06/03 00:11:34;;;;;;;7.80;2.00;;;;;;;;;;5079283;28;20036;-57
2021/06/03 00:14:00;;;;;;;7.70;2.25;;;;;;;;;;5077462;28;20048;-58
2021/06/03 00:16:33;;;;;;;7.65;2.38;;;;;;;;;;5082270;28;20055;-59
2021/06/03 00:19:00;;;;;;;5.10;2.40;;;;;;;;;;5078975;28;20051;-52
2021/06/03 00:21:26;;;;;;;3.75;2.20;;;;;;;;;;5084221;28;20040;-58
2021/06/03 00:23:52;;;;;;;5.30;2.15;;;;;;;;;;5081852;28;20114;-55
2021/06/03 00:26:18;;;;;;;5.80;2.30;;;;;;;;;;5083155;28;20059;-57
2021/06/03 00:28:44;;;;;;;5.65;2.40;;;;;;;;;;5080235;28;20158;-59
2021/06/03 00:31:10;;;;;;;6.95;2.60;;;;;;;;;;5084463;28;20047;-58
2021/06/03 00:33:37;;;;;;;4.70;2.30;;;;;;;;;;5080146;28;20056;-56
2021/06/03 00:36:03;;;;;;;8.30;2.30;;;;;;;;;;5082327;28;20044;-59
2021/06/03 00:38:29;;;;;;;4.40;2.05;;;;;;;;;;5081143;28;20033;-55
2021/06/03 00:40:55;;;;;;;7.45;2.13;;;;;;;;;;5074405;28;20044;-58
2021/06/03 00:43:21;;;;;;;4.47;2.00;;;;;;;;;;5061375;28;20045;-54
2021/06/03 00:45:47;;;;;;;5.68;2.42;;;;;;;;;;5076962;28;20051;-54
2021/06/03 00:48:14;;;;;;;5.93;2.00;;;;;;;;;;5083106;28;20037;-54
2021/06/03 00:50:43;;;;;;;3.38;1.88;;;;;;;;;;5078457;28;20037;-57
2021/06/03 00:53:10;;;;;;;4.93;1.90;;;;;;;;;;5082704;28;20036;-55
2021/06/03 00:55:37;;;;;;;4.03;2.00;;;;;;;;;;5077708;28;20048;-52
2021/06/03 00:58:04;;;;;;;5.05;2.40;;;;;;;;;;5083030;28;20044;-54
2021/06/03 01:00:30;;;;;;;6.15;2.00;;;;;;;;;;5078932;28;20032;-55
2021/06/03 01:02:56;;;;;;;5.18;2.17;;;;;;;;;;5082378;28;20032;-52
2021/06/03 01:05:23;;;;;;;6.95;2.25;;;;;;;;;;5079327;28;20051;-56
2021/06/03 01:07:54;;;;;;;3.40;2.00;;;;;;;;;;5080797;28;20125;-53
2021/06/03 01:10:21;;;;;;;12.23;2.35;;;;;;;;;;5078774;28;20032;-55
2021/06/03 01:12:51;;;;;;;8.00;2.63;;;;;;;;;;5082172;28;20040;-53
2021/06/03 01:15:17;;;;;;;4.05;2.22;;;;;;;;;;5081167;28;20035;-54
2021/06/03 01:17:43;;;;;;;4.82;2.45;;;;;;;;;;5083047;28;20047;-54
2021/06/03 01:20:09;;;;;;;4.53;2.30;;;;;;;;;;5080552;28;20048;-55
2021/06/03 01:22:44;;;;;;;13.23;2.75;;;;;;;;;;5082394;28;20052;-55
2021/06/03 01:25:12;;;;;;;5.07;2.60;;;;;;;;;;5081308;28;20048;-53
2021/06/03 01:27:39;;;;;;;7.70;2.40;;;;;;;;;;5078387;28;20056;-56
2021/06/03 01:30:07;;;;;;;9.00;2.22;;;;;;;;;;5082627;28;20100;-53
2021/06/03 01:32:33;;;;;;;;;;;;;;;;;;5078930;28;20039;-51
2021/06/03 01:34:59;;;;;;;14.95;2.45;;;;;;;;;;5080993;28;19931;-55
2021/06/03 01:37:25;;;;;;;4.85;2.50;;;;;;;;;;5079201;28;20055;-55
2021/06/03 01:39:52;;;;;;;6.55;2.50;;;;;;;;;;5081080;28;20040;-55
2021/06/03 01:42:23;;;;;;;8.05;2.90;;;;;;;;;;5078601;28;20040;-55
2021/06/03 01:44:49;;;;;;;6.07;2.60;;;;;;;;;;5072433;28;20040;-57
2021/06/03 01:47:15;;;;;;;5.95;2.85;;;;;;;;;;5059361;28;20114;-53
2021/06/03 01:49:41;;;;;;;4.97;2.50;;;;;;;;;;5061755;28;20047;-57
2021/06/03 01:52:08;;;;;;;5.05;2.28;;;;;;;;;;5066034;28;20048;-55
2021/06/03 01:54:34;;;;;;;7.85;3.05;;;;;;;;;;5084380;28;20047;-59
2021/06/03 01:57:01;;;;;;;7.10;2.70;;;;;;;;;;5079194;28;20121;-56
2021/06/03 01:59:29;;;;;;;6.32;2.70;;;;;;;;;;5084382;28;20047;-57
2021/06/03 02:01:55;;;;;;;6.22;2.45;;;;;;;;;;5078391;28;20036;-57
2021/06/03 02:04:21;;;;;;;5.05;2.33;;;;;;;;;;5084370;28;20073;-57
2021/06/03 02:06:47;;;;;;;3.67;2.03;;;;;;;;;;5082484;28;20040;-55
2021/06/03 02:09:13;;;;;;;5.53;2.38;;;;;;;;;;5080570;28;20040;-59
2021/06/03 02:11:39;;;;;;;8.05;2.70;;;;;;;;;;5083111;28;20121;-57
2021/06/03 02:14:07;;;;;;;6.85;2.53;;;;;;;;;;5078238;28;20118;-57
2021/06/03 02:16:37;;;;;;;15.60;2.60;;;;;;;;;;5082298;28;20040;-57
2021/06/03 02:19:05;;;;;;;8.10;2.13;;;;;;;;;;5078308;28;20044;-54
2021/06/03 02:21:31;;;;;;;4.57;2.38;;;;;;;;;;5083029;28;20048;-52
2021/06/03 02:23:58;;;;;;;4.78;2.20;;;;;;;;;;5078025;28;20055;-57
2021/06/03 02:26:25;;;;;;;5.55;2.60;;;;;;;;;;5081304;28;20041;-55
2021/06/03 02:28:52;;;;;;;5.30;2.28;;;;;;;;;;5078634;28;20122;-57
2021/06/03 02:31:19;;;;;;;4.00;2.10;;;;;;;;;;5082227;28;20150;-57
2021/06/03 02:33:46;;;;;;;6.20;2.67;;;;;;;;;;5078698;28;20044;-59
2021/06/03 02:36:13;;;;;;;9.57;2.60;;;;;;;;;;5083062;28;20032;-54
2021/06/03 02:38:40;;;;;;;11.85;2.70;;;;;;;;;;5075719;28;20126;-55
2021/06/03 02:41:07;;;;;;;5.03;2.40;;;;;;;;;;5082168;28;20044;-59
2021/06/03 02:43:33;;;;;;;6.32;2.08;;;;;;;;;;5078159;28;20055;-57
2021/06/03 02:46:00;;;;;;;5.80;2.63;;;;;;;;;;5081645;28;20056;-56
2021/06/03 02:48:27;;;;;;;4.90;2.38;;;;;;;;;;5081891;28;20040;-58
2021/06/03 02:50:55;;;;;;;5.03;2.25;;;;;;;;;;5078527;28;20048;-58
2021/06/03 02:53:20;;;;;;;5.30;2.45;;;;;;;;;;5081641;28;20060;-57
2021/06/03 02:55:47;;;;;;;6.72;2.40;;;;;;;;;;5078056;28;20058;-48
2021/06/03 02:58:13;;;;;;;6.68;2.40;;;;;;;;;;5083142;28;20055;-56
2021/06/03 03:00:39;;;;;;;4.82;2.33;;;;;;;;;;5065112;28;20041;-56
2021/06/03 03:03:08;;;;;;;4.43;2.35;;;;;;;;;;5060715;28;20065;-59
2021/06/03 03:05:34;;;;;;;9.23;2.83;;;;;;;;;;5070512;28;20048;-54
2021/06/03 03:08:02;;;;;;;6.85;2.47;;;;;;;;;;5082275;28;20056;-57
2021/06/03 03:10:29;;;;;;;5.75;2.75;;;;;;;;;;5078069;28;20036;-58
2021/06/03 03:12:55;;;;;;;5.50;2.33;;;;;;;;;;5081834;28;20051;-58
2021/06/03 03:15:22;;;;;;;5.88;2.30;;;;;;;;;;5078240;28;20104;-58
2021/06/03 03:17:48;;;;;;;5.03;2.10;;;;;;;;;;5080997;28;20055;-58
2021/06/03 03:20:15;;;;;;;7.40;2.58;;;;;;;;;;5077014;28;20044;-59
2021/06/03 03:22:41;;;;;;;6.38;2.45;;;;;;;;;;5083767;28;20117;-58
2021/06/03 03:25:10;;;;;;;11.20;2.50;;;;;;;;;;5077890;28;20036;-58
2021/06/03 03:27:37;;;;;;;8.63;2.47;;;;;;;;;;5079909;28;20048;-56
2021/06/03 03:30:04;;;;;;;6.63;2.80;;;;;;;;;;5081773;28;20055;-54
2021/06/03 03:32:30;;;;;;;4.88;2.30;;;;;;;;;;5078286;28;20029;-50
2021/06/03 03:34:56;;;;;;;4.78;2.55;;;;;;;;;;5083785;28;20036;-55
2021/06/03 03:37:22;;;;;;;6.38;2.70;;;;;;;;;;5074255;28;20068;-54
2021/06/03 03:39:48;;;;;;;9.30;2.85;;;;;;;;;;5081140;28;20051;-52
2021/06/03 03:42:16;;;;;;;6.50;2.60;;;;;;;;;;5076591;28;20129;-51
2021/06/03 03:44:42;;;;;;;6.80;2.50;;;;;;;;;;5081155;28;20044;-53
2021/06/03 03:47:07;;;;;;;6.93;2.72;;;;;;;;;;5077571;28;20040;-53
2021/06/03 03:49:33;;;;;;;8.07;2.72;;;;;;;;;;5081195;28;20072;-50
2021/06/03 03:52:02;;;;;;;5.35;2.60;;;;;;;;;;5080189;28;20036;-54
2021/06/03 03:54:30;;;;;;;;;;;;;;;;;;5086440;28;20055;-52
2021/06/03 03:56:56;;;;;;;5.72;2.75;;;;;;;;;;5079121;28;19931;-59
2021/06/03 03:59:24;;;;;;;5.60;2.75;;;;;;;;;;5082425;28;20041;-51
2021/06/03 04:01:53;;;;;;;5.22;2.72;;;;;;;;;;5077640;28;20088;-59
2021/06/03 04:04:19;;;;;;;8.38;4.60;;;;;;;;;;5084056;28;20041;-57
2021/06/03 04:06:46;;;;;;;10.40;3.83;;;;;;;;;;5080636;28;20060;-54
2021/06/03 04:09:12;;;;;;;9.23;4.32;;;;;;;;;;5083855;28;20040;-58
2021/06/03 04:11:38;;;;;;;9.00;3.78;;;;;;;;;;5083109;28;20036;-56
2021/06/03 04:14:04;;;;;;;6.88;3.50;;;;;;;;;;5077471;28;20044;-57
2021/06/03 04:16:31;;;;;;;7.55;3.70;;;;;;;;;;5064331;28;20048;-54
2021/06/03 04:18:58;;;;;;;8.37;3.50;;;;;;;;;;5076853;28;20037;-50
2021/06/03 04:21:24;;;;;;;7.97;4.30;;;;;;;;;;5084618;28;20118;-54
2021/06/03 04:23:50;;;;;;;11.35;3.35;;;;;;;;;;5077957;28;20040;-58
2021/06/03 04:26:16;;;;;;;8.18;3.40;;;;;;;;;;5082757;28;20051;-59
2021/06/03 04:28:43;;;;;;;13.10;6.28;;;;;;;;;;5080584;28;20047;-59
2021/06/03 04:31:09;;;;;;;11.52;5.43;;;;;;;;;;5084304;28;20041;-57
2021/06/03 04:33:36;;;;;;;9.35;4.90;;;;;;;;;;5081537;28;20041;-58
2021/06/03 04:36:03;;;;;;;10.07;4.40;;;;;;;;;;5080767;28;20093;-56
2021/06/03 04:38:31;;;;;;;10.52;3.92;;;;;;;;;;5074391;28;20055;-59
2021/06/03 04:40:56;;;;;;;9.02;3.40;;;;;;;;;;5059297;28;20032;-59
2021/06/03 04:43:23;;;;;;;6.82;3.60;;;;;;;;;;5062899;28;20059;-59
2021/06/03 04:45:49;;;;;;;9.02;3.20;;;;;;;;;;5081859;28;20040;-59
2021/06/03 04:48:17;;;;;;;6.88;3.42;;;;;;;;;;5079135;28;20040;-59
2021/06/03 04:50:47;;;;;;;6.32;3.35;;;;;;;;;;5061463;28;20047;-57
2021/06/03 04:53:17;;;;;;;7.65;3.35;;;;;;;;;;5079005;28;20044;-58
2021/06/03 04:55:43;;;;;;;6.38;3.20;;;;;;;;;;5077300;28;20032;-53
2021/06/03 04:58:09;;;;;;;8.07;3.58;;;;;;;;;;5064370;28;20044;-50
2021/06/03 05:00:36;;;;;;;6.22;3.20;;;;;;;;;;5076606;28;20129;-55
2021/06/03 05:03:05;;;;;;;6.75;3.53;;;;;;;;;;5082989;28;20041;-51
2021/06/03 05:05:32;;;;;;;12.65;4.20;;;;;;;;;;5078519;28;20040;-55
2021/06/03 05:07:59;;;;;;;10.48;5.07;;;;;;;;;;5083705;28;20082;-55
2021/06/03 05:10:26;;;;;;;12.02;4.60;;;;;;;;;;5080957;28;20122;-51
2021/06/03 05:12:52;;;;;;;10.65;4.85;;;;;;;;;;5085412;28;20036;-51
2021/06/03 05:15:19;;;;;;;9.27;4.28;;;;;;;;;;5075609;28;20059;-50
2021/06/03 05:17:47;;;;;;;8.35;4.07;;;;;;;;;;5079495;28;20071;-57
2021/06/03 05:20:14;;;;;;;7.47;3.97;;;;;;;;;;5069629;28;20060;-57
2021/06/03 05:22:40;;;;;;;8.75;4.05;;;;;;;;;;5077376;28;20056;-54
2021/06/03 05:25:08;;;;;;;9.05;4.45;;;;;;;;;;5074919;28;20052;-56
2021/06/03 05:27:34;;;;;;;10.10;4.93;;;;;;;;;;5077577;28;20032;-55
2021/06/03 05:30:04;;;;;;;9.60;4.35;;;;;;;;;;5069092;28;20076;-54
2021/06/03 05:32:31;;;;;;;15.15;5.50;;;;;;;;;;5072355;28;20080;-51
2021/06/03 05:34:56;;;;;;;11.40;4.50;;;;;;;;;;5097613;28;20044;-58
2021/06/03 05:37:22;;;;;;;11.07;4.93;;;;;;;;;;5073999;28;20059;-54
2021/06/03 05:39:48;;;;;;;10.30;4.93;;;;;;;;;;5077145;28;20036;-55
2021/06/03 05:42:17;;;;;;;16.15;5.28;;;;;;;;;;5076319;28;20056;-59
2021/06/03 05:44:43;;;;;;;;;;;;;;;;;;5080043;28;20060;-54
2021/06/03 05:47:09;;;;;;;8.75;4.13;;;;;;;;;;5075783;28;19920;-53
2021/06/03 05:49:35;;;;;;;11.85;6.28;;;;;;;;;;5070991;28;20060;-52
2021/06/03 05:52:02;;;;;;;21.10;8.07;;;;;;;;;;5070756;28;20040;-52
2021/06/03 05:54:29;;;;;;;11.83;5.63;;;;;;;;;;5071998;28;20045;-58
2021/06/03 05:56:55;;;;;;;8.88;4.97;;;;;;;;;;5076962;28;20296;-49
2021/06/03 05:59:23;;;;;;;8.10;4.60;;;;;;;;;;5078360;28;20051;-53
2021/06/03 06:01:49;;;;;;;10.07;4.60;;;;;;;;;;5072157;28;20044;-53
2021/06/03 06:06:58;;;;;;;8.40;4.78;;;;;;;;;;5069840;28;20048;-58
2021/06/03 06:09:24;;;;;;;9.23;4.10;;;;;;;;;;5079004;28;20040;-57
2021/06/03 06:11:50;;;;;;;9.00;4.80;;;;;;;;;;5073286;28;20060;-58
2021/06/03 06:14:16;;;;;;;8.68;4.63;;;;;;;;;;5071053;28;20048;-55
2021/06/03 06:16:43;;;;;;;11.60;5.25;;;;;;;;;;5080879;28;20047;-58
2021/06/03 06:19:10;;;;;;;10.43;5.30;;;;;;;;;;5079351;28;20083;-56
2021/06/03 06:21:36;;;;;;;11.23;5.28;;;;;;;;;;5081752;28;20118;-59
2021/06/03 06:24:03;;;;;;;10.82;4.90;;;;;;;;;;5079230;28;20048;-58
2021/06/03 06:26:29;;;;;;;9.90;4.63;;;;;;;;;;5081690;28;20051;-59
2021/06/03 06:28:55;;;;;;;9.73;4.80;;;;;;;;;;5077727;28;20044;-56
2021/06/03 06:31:25;;;;;;;8.90;4.55;;;;;;;;;;5081627;28;20055;-58
2021/06/03 06:33:53;;;;;;;11.35;5.20;;;;;;;;;;5077990;28;20044;-56
2021/06/03 06:36:19;;;;;;;11.27;5.43;;;;;;;;;;5080775;28;20088;-57
2021/06/03 06:38:45;;;;;;;15.88;5.45;;;;;;;;;;5078306;28;20036;-54
2021/06/03 06:41:11;;;;;;;11.30;5.85;;;;;;;;;;5081772;28;20088;-55
2021/06/03 06:43:37;;;;;;;12.18;5.55;;;;;;;;;;5076753;28;20032;-55
2021/06/03 06:46:04;;;;;;;11.18;6.13;;;;;;;;;;5081917;28;20059;-54
2021/06/03 06:48:30;;;;;;;14.75;5.45;;;;;;;;;;5079244;28;20028;-53
2021/06/03 06:50:58;;;;;;;12.05;6.30;;;;;;;;;;5084314;28;20044;-58
2021/06/03 06:53:26;;;;;;;15.02;6.25;;;;;;;;;;5079855;28;20064;-57
2021/06/03 06:55:52;;;;;;;15.20;6.95;;;;;;;;;;5081216;28;20052;-58
2021/06/03 06:58:18;;;;;;;14.82;6.47;;;;;;;;;;5079810;28;20047;-59
2021/06/03 07:00:45;;;;;;;13.98;6.70;;;;;;;;;;5079384;28;20240;-58
2021/06/03 07:03:15;;;;;;;14.93;6.25;;;;;;;;;;5080789;28;20048;-59
2021/06/03 07:05:45;;;;;;;11.13;6.68;;;;;;;;;;5079908;28;20038;-54
2021/06/03 07:08:14;;;;;;;11.80;6.68;;;;;;;;;;5079823;28;20048;-59
2021/06/03 07:10:40;;;;;;;13.25;6.63;;;;;;;;;;5077391;28;20040;-53
2021/06/03 07:13:06;;;;;;;13.45;6.68;;;;;;;;;;5080492;28;20048;-59
2021/06/03 07:15:32;;;;;;;12.80;5.95;;;;;;;;;;5074744;28;20048;-55
2021/06/03 07:17:58;;;;;;;12.70;6.13;;;;;;;;;;5079040;28;20156;-55
2021/06/03 07:20:24;;;;;;;11.93;5.95;;;;;;;;;;5072653;28;20033;-52
2021/06/03 07:22:51;;;;;;;11.77;6.40;;;;;;;;;;5059803;28;20125;-59
2021/06/03 07:25:20;;;;;;;15.07;6.25;;;;;;;;;;5064128;28;20021;-55
2021/06/03 07:27:46;;;;;;;19.05;9.50;;;;;;;;;;5079549;28;20040;-57
2021/06/03 07:30:14;;;;;;;14.10;7.82;;;;;;;;;;5075826;28;20068;-54
2021/06/03 07:32:40;;;;;;;15.68;7.82;;;;;;;;;;5079917;28;20037;-56
2021/06/03 07:35:09;;;;;;;13.75;7.07;;;;;;;;;;5077564;28;20089;-59
2021/06/03 07:37:35;;;;;;;12.88;6.75;;;;;;;;;;5079517;28;20059;-58
2021/06/03 07:40:01;;;;;;;16.05;6.95;;;;;;;;;;5076979;28;20036;-58
2021/06/03 07:42:29;;;;;;;17.23;6.35;;;;;;;;;;5081075;28;20110;-56
2021/06/03 07:44:54;;;;;;;14.73;6.30;;;;;;;;;;5080554;28;20048;-60
2021/06/03 07:47:20;;;;;;;14.10;6.38;;;;;;;;;;5073836;28;20056;-59
2021/06/03 07:49:46;;;;;;;12.32;5.65;;;;;;;;;;5060600;28;20098;-60
2021/06/03 07:52:12;;;;;;;13.32;5.15;;;;;;;;;;5073621;28;20040;-60
2021/06/03 07:54:38;;;;;;;14.35;6.18;;;;;;;;;;5081822;28;20043;-59
2021/06/03 07:57:05;;;;;;;14.15;7.00;;;;;;;;;;5077193;28;20065;-60
2021/06/03 07:59:41;;;;;;;10.27;5.95;;;;;;;;;;5081394;28;20044;-53
2021/06/03 08:02:07;;;;;;;14.90;6.35;;;;;;;;;;5072398;28;20052;-52
2021/06/03 08:04:32;;;;;;;10.27;5.78;;;;;;;;;;5061004;28;20040;-55
2021/06/03 08:06:58;;;;;;;12.75;6.03;;;;;;;;;;5066400;28;20044;-54
2021/06/03 08:09:27;;;;;;;13.32;5.65;;;;;;;;;;5079022;28;20036;-52
2021/06/03 08:11:53;;;;;;;11.30;5.95;;;;;;;;;;5075707;28;20060;-59
2021/06/03 08:14:18;;;;;;;13.18;5.80;;;;;;;;;;5080971;28;20035;-56
2021/06/03 08:16:46;;;;;;;17.80;5.80;;;;;;;;;;5077169;28;20122;-57
2021/06/03 08:19:12;;;;;;;15.50;5.90;;;;;;;;;;5080249;28;20044;-57
2021/06/03 08:21:38;;;;;;;14.90;5.65;;;;;;;;;;5076128;28;20049;-57
2021/06/03 08:24:04;;;;;;;9.93;5.55;;;;;;;;;;5081631;28;20040;-58
2021/06/03 08:26:30;;;;;;;16.67;6.13;;;;;;;;;;5081284;28;20121;-57
2021/06/03 08:29:03;;;;;;;16.70;6.82;;;;;;;;;;5079977;28;20067;-54
2021/06/03 08:31:28;;;;;;;13.60;7.00;;;;;;;;;;5072832;28;20129;-60
2021/06/03 08:34:01;;;;;;;14.05;8.80;;;;;;;;;;5071655;28;20048;-55
2021/06/03 08:36:27;;;;;;;13.23;7.18;;;;;;;;;;5080717;28;20043;-59
2021/06/03 08:38:53;;;;;;;12.43;6.70;;;;;;;;;;5075722;28;20044;-56
2021/06/03 08:41:19;;;;;;;9.90;5.13;;;;;;;;;;5073789;28;20063;-55
2021/06/03 08:43:48;;;;;;;14.60;5.70;;;;;;;;;;5081572;28;20104;-58
2021/06/03 08:46:13;;;;;;;;;;;;;;;;;;5083739;28;20040;-59
2021/06/03 08:48:40;;;;;;;10.73;5.00;;;;;;;;;;5078429;28;19931;-60
2021/06/03 08:51:07;;;;;;;9.27;4.68;;;;;;;;;;5082601;28;20039;-60
2021/06/03 08:53:33;;;;;;;9.10;4.70;;;;;;;;;;5079506;28;20048;-58
2021/06/03 08:56:15;;;;;;;8.50;5.10;;;;;;;;;;5082739;28;20054;-59
2021/06/03 08:58:42;;;;;;;10.48;5.43;;;;;;;;;;5079060;28;20044;-59
2021/06/03 09:01:08;;;;;;;12.40;5.47;;;;;;;;;;5082813;28;20044;-59
2021/06/03 09:03:34;;;;;;;9.60;4.50;;;;;;;;;;5081652;28;20048;-57
2021/06/03 09:06:01;;;;;;;10.93;5.18;;;;;;;;;;5082417;28;20032;-60
2021/06/03 09:08:31;;;;;;;10.68;4.60;;;;;;;;;;5078548;28;20037;-55
2021/06/03 09:10:57;;;;;;;8.68;4.47;;;;;;;;;;5082501;28;20048;-59
2021/06/03 09:13:25;;;;;;;10.15;4.78;;;;;;;;;;5082467;28;20052;-59
2021/06/03 09:15:52;;;;;;;12.18;5.40;;;;;;;;;;5078887;28;20055;-53
2021/06/03 09:18:25;;;;;;;9.43;5.22;;;;;;;;;;5080939;28;20036;-60
2021/06/03 09:20:51;;;;;;;11.32;5.13;;;;;;;;;;5074662;28;20040;-52
2021/06/03 09:23:25;;;;;;;9.73;4.53;;;;;;;;;;5083399;28;20036;-57
2021/06/03 09:25:53;;;;;;;11.18;4.47;;;;;;;;;;5077426;28;20072;-61
2021/06/03 09:28:24;;;;;;;8.30;3.83;;;;;;;;;;5084575;28;20056;-59
2021/06/03 09:30:54;;;;;;;11.65;4.43;;;;;;;;;;5078056;28;20082;-60
2021/06/03 09:33:20;;;;;;;9.63;3.80;;;;;;;;;;5082291;28;20044;-59
2021/06/03 09:35:55;;;;;;;12.27;4.78;;;;;;;;;;5074686;28;20055;-59
2021/06/03 09:38:21;;;;;;;8.02;4.53;;;;;;;;;;5081492;28;20093;-58
2021/06/03 09:40:48;;;;;;;9.88;5.30;;;;;;;;;;5076116;28;20036;-60
2021/06/03 09:43:19;;;;;;;8.43;4.70;;;;;;;;;;5061282;28;20040;-59
2021/06/03 09:45:58;;;;;;;9.80;4.68;;;;;;;;;;5062270;28;20106;-56
2021/06/03 09:48:38;;;;;;;13.20;6.97;;;;;;;;;;5061955;28;20057;-55
2021/06/03 09:51:20;;;;;;;12.55;6.28;;;;;;;;;;5066968;28;20047;-60
2021/06/03 09:53:50;;;;;;;12.00;7.63;;;;;;;;;;5083170;28;20116;-59
2021/06/03 09:56:19;;;;;;;12.77;5.82;;;;;;;;;;5080344;28;20048;-58
2021/06/03 09:58:48;;;;;;;8.80;5.55;;;;;;;;;;5084069;27;20119;-58
2021/06/03 10:01:14;;;;;;;10.48;4.40;;;;;;;;;;5078397;28;20049;-60
2021/06/03 10:03:50;;;;;;;9.00;4.95;;;;;;;;;;5081311;28;20041;-57
2021/06/03 10:06:20;;;;;;;17.42;9.65;;;;;;;;;;5080799;28;20044;-57
2021/06/03 10:08:47;;;;;;;12.50;5.57;;;;;;;;;;5082328;28;20039;-57
2021/06/03 10:11:13;;;;;;;15.10;6.40;;;;;;;;;;5063065;28;20146;-55
2021/06/03 10:14:03;;;;;;;10.90;5.57;;;;;;;;;;5083475;28;20028;-52
2021/06/03 10:16:34;;;;;;;10.45;6.22;;;;;;;;;;5077930;28;20047;-55
2021/06/03 10:19:15;;;;;;;12.27;5.32;;;;;;;;;;5080642;28;20052;-57
2021/06/03 10:21:41;;;;;;;11.77;5.53;;;;;;;;;;5076040;28;20048;-58
2021/06/03 10:24:07;;;;;;;8.63;4.53;;;;;;;;;;5082571;28;20043;-58
2021/06/03 10:26:48;;;;;;;10.25;5.55;;;;;;;;;;5078186;28;20032;-60
2021/06/03 10:29:14;;;;;;;15.25;5.72;;;;;;;;;;5075146;28;20040;-60
2021/06/03 10:31:42;;;;;;;10.02;5.13;;;;;;;;;;5083462;28;20108;-59
2021/06/03 10:34:09;;;;;;;16.15;5.75;;;;;;;;;;5075623;28;20060;-60
2021/06/03 10:36:35;;;;;;;8.73;4.67;;;;;;;;;;5062049;28;20041;-57
2021/06/03 10:39:01;;;;;;;13.45;5.75;;;;;;;;;;5070053;28;20040;-60
2021/06/03 10:41:28;;;;;;;13.65;5.57;;;;;;;;;;5059941;28;20041;-57
2021/06/03 10:43:54;;;;;;;12.50;4.85;;;;;;;;;;5071092;28;20036;-60
2021/06/03 10:46:20;;;;;;;9.65;5.15;;;;;;;;;;5079244;28;20043;-57
2021/06/03 10:48:48;;;;;;;10.77;5.82;;;;;;;;;;5076092;28;20048;-59
2021/06/03 10:51:14;;;;;;;8.73;5.65;;;;;;;;;;5079644;28;20137;-53
2021/06/03 10:53:43;;;;;;;9.38;4.72;;;;;;;;;;5075071;28;20060;-54
2021/06/03 10:56:09;;;;;;;9.05;4.53;;;;;;;;;;5081247;28;20081;-60
2021/06/03 10:58:36;;;;;;;10.13;5.13;;;;;;;;;;5070408;28;20041;-58
2021/06/03 11:01:04;;;;;;;13.30;5.18;;;;;;;;;;5059032;28;20051;-53
2021/06/03 11:03:36;;;;;;;10.57;4.88;;;;;;;;;;5062886;28;20032;-58
2021/06/03 11:06:05;;;;;;;11.77;4.45;;;;;;;;;;5082637;28;20055;-60
2021/06/03 11:08:32;;;;;;;10.32;4.95;;;;;;;;;;5078129;28;20125;-56
2021/06/03 11:11:17;;;;;;;7.90;4.55;;;;;;;;;;5080147;28;20140;-58
2021/06/03 11:13:58;;;;;;;9.13;5.28;;;;;;;;;;5078536;28;20039;-59
2021/06/03 11:16:24;;;;;;;9.98;5.05;;;;;;;;;;5080230;28;20052;-59
2021/06/03 11:19:11;;;;;;;10.45;5.35;;;;;;;;;;5076535;28;20043;-58
2021/06/03 11:21:56;;;;;;;10.68;4.72;;;;;;;;;;5080010;28;20048;-57
2021/06/03 11:24:42;;;;;;;8.15;4.57;;;;;;;;;;5075942;28;20055;-60
2021/06/03 11:27:08;;;;;;;9.73;4.75;;;;;;;;;;5096541;28;20048;-58
2021/06/03 11:29:35;;;;;;;16.85;6.57;;;;;;;;;;5073785;28;20142;-56
2021/06/03 11:32:19;;;;;;;14.65;6.20;;;;;;;;;;5060984;28;20025;-57
2021/06/03 11:34:47;;;;;;;12.90;5.72;;;;;;;;;;5063588;28;20055;-59
2021/06/03 11:37:15;;;;;;;10.63;6.57;;;;;;;;;;5080717;28;20051;-58
2021/06/03 11:39:44;;;;;;;15.52;5.88;;;;;;;;;;5094510;28;20060;-59
2021/06/03 11:42:34;;;;;;;11.23;5.85;;;;;;;;;;5080888;28;20051;-51
2021/06/03 11:45:08;;;;;;;12.48;5.93;;;;;;;;;;5077605;28;20044;-60
2021/06/03 11:47:52;;;;;;;12.82;6.00;;;;;;;;;;5084080;28;20283;-56
2021/06/03 11:50:34;;;;;;;11.55;5.25;;;;;;;;;;5079247;28;20051;-61
2021/06/03 11:53:12;;;;;;;10.13;5.53;;;;;;;;;;5080351;28;20037;-60
2021/06/03 11:55:39;;;;;;;15.73;5.43;;;;;;;;;;5072141;28;20049;-57
2021/06/03 11:58:16;;;;;;;8.93;5.00;;;;;;;;;;5062273;28;20036;-59
2021/06/03 12:00:43;;;;;;;11.27;6.20;;;;;;;;;;5062048;28;20077;-60
2021/06/03 12:03:22;;;;;;;11.88;6.10;;;;;;;;;;5080584;28;20036;-57
2021/06/03 12:05:48;;;;;;;14.18;5.60;;;;;;;;;;5077193;28;20044;-61
2021/06/03 12:08:29;;;;;;;9.60;5.63;;;;;;;;;;5082103;28;20039;-58
2021/06/03 12:10:56;;;;;;;12.05;5.60;;;;;;;;;;5077313;28;20059;-57
2021/06/03 12:13:25;;;;;;;10.23;5.50;;;;;;;;;;5083528;28;20036;-54
2021/06/03 12:15:51;;;;;;;10.55;4.75;;;;;;;;;;5081375;28;20044;-57
2021/06/03 12:18:18;;;;;;;9.05;4.65;;;;;;;;;;5082299;28;20052;-54
2021/06/03 12:20:44;;;;;;;8.00;4.85;;;;;;;;;;5083166;28;20048;-56
2021/06/03 12:23:11;;;;;;;6.78;3.75;;;;;;;;;;5060475;28;20049;-57
2021/06/03 12:25:38;;;;;;;7.82;4.47;;;;;;;;;;5077438;28;20053;-54
2021/06/03 12:28:06;;;;;;;21.23;4.65;;;;;;;;;;5079649;28;20044;-59
2021/06/03 12:30:34;;;;;;;12.63;4.72;;;;;;;;;;5082311;28;20051;-59
2021/06/03 12:33:01;;;;;;;11.18;4.90;;;;;;;;;;5079388;28;20048;-54
2021/06/03 12:35:31;;;;;;;8.93;4.30;;;;;;;;;;5082935;28;20048;-60
2021/06/03 12:37:59;;;;;;;13.27;4.10;;;;;;;;;;5080480;28;20052;-58
2021/06/03 12:40:26;;;;;;;9.27;4.07;;;;;;;;;;5083454;28;20059;-59
2021/06/03 12:42:59;;;;;;;7.47;4.20;;;;;;;;;;5078272;28;20037;-60
2021/06/03 12:45:28;;;;;;;12.80;4.28;;;;;;;;;;5082208;28;20122;-60
2021/06/03 12:47:55;;;;;;;9.80;4.85;;;;;;;;;;5075221;28;20052;-56
2021/06/03 12:50:22;;;;;;;7.13;3.85;;;;;;;;;;5063541;28;20163;-60
2021/06/03 12:52:48;;;;;;;9.20;5.78;;;;;;;;;;5054362;28;20042;-59
2021/06/03 12:55:15;;;;;;;12.38;7.22;;;;;;;;;;5063567;28;20113;-56
2021/06/03 12:57:42;;;;;;;21.55;9.60;;;;;;;;;;5061382;28;20033;-59
2021/06/03 13:00:10;;;;;;;13.70;8.88;;;;;;;;;;5081953;28;20036;-57
2021/06/03 13:02:37;;;;;;;12.43;8.45;;;;;;;;;;5083140;28;20051;-60
2021/06/03 13:05:04;;;;;;;14.15;8.85;;;;;;;;;;5080588;28;20109;-60
2021/06/03 13:07:32;;;;;;;15.00;9.05;;;;;;;;;;5082967;28;20118;-56
2021/06/03 13:10:01;;;;;;;14.95;8.57;;;;;;;;;;5081303;28;20036;-60
2021/06/03 13:12:27;;;;;;;13.77;8.55;;;;;;;;;;5082072;28;20060;-60
2021/06/03 13:14:54;;;;;;;22.20;9.40;;;;;;;;;;5081607;28;20121;-59
2021/06/03 13:17:22;;;;;;;13.77;6.70;;;;;;;;;;5083040;28;20044;-59
2021/06/03 13:19:50;;;;;;;13.23;6.90;;;;;;;;;;5077618;28;20050;-59
2021/06/03 13:22:18;;;;;;;10.27;4.85;;;;;;;;;;5082381;28;20036;-57
2021/06/03 13:24:45;;;;;;;7.47;3.55;;;;;;;;;;5078546;28;20048;-56
2021/06/03 13:27:12;;;;;;;10.05;3.58;;;;;;;;;;5084726;28;20028;-59
2021/06/03 13:29:44;;;;;;;11.40;4.82;;;;;;;;;;5072811;28;20118;-58
2021/06/03 13:32:10;;;;;;;10.55;5.10;;;;;;;;;;5063167;28;20037;-59
2021/06/03 13:34:38;;;;;;;13.93;5.05;;;;;;;;;;5065803;28;20044;-60
2021/06/03 13:37:10;;;;;;;14.13;5.00;;;;;;;;;;5077105;28;20033;-60
2021/06/03 13:39:38;;;;;;;8.98;4.65;;;;;;;;;;5066300;28;20032;-58
2021/06/03 13:42:22;;;;;;;11.93;4.65;;;;;;;;;;5080888;28;20055;-54
2021/06/03 13:44:54;;;;;;;11.32;6.85;;;;;;;;;;5076282;28;20043;-59
2021/06/03 13:47:34;;;;;;;14.27;6.75;;;;;;;;;;5081925;28;20092;-57
2021/06/03 13:50:11;;;;;;;11.70;7.88;;;;;;;;;;5064884;28;20037;-57
2021/06/03 13:52:43;;;;;;;12.82;8.43;;;;;;;;;;5084256;28;20036;-61
2021/06/03 13:55:14;;;;;;;13.00;7.72;;;;;;;;;;5078909;28;20047;-60
2021/06/03 13:57:41;;;;;;;12.68;8.15;;;;;;;;;;5075032;28;20032;-58
2021/06/03 14:00:08;;;;;;;15.05;8.65;;;;;;;;;;5088281;28;20098;-56
2021/06/03 14:02:33;;;;;;;10.68;6.05;;;;;;;;;;5080661;28;20108;-59
2021/06/03 14:05:08;;;;;;;14.25;7.97;;;;;;;;;;5083765;28;20044;-60
2021/06/03 14:07:34;;;;;;;12.55;6.57;;;;;;;;;;5080167;28;20055;-59
2021/06/03 14:10:07;;;;;;;13.90;6.95;;;;;;;;;;5081969;28;20036;-57
2021/06/03 14:12:40;;;;;;;14.38;8.65;;;;;;;;;;5059203;28;20048;-52
2021/06/03 14:15:08;;;;;;;12.43;6.30;;;;;;;;;;5062793;28;20041;-58
2021/06/03 14:17:34;;;;;;;20.55;8.23;;;;;;;;;;5072218;28;20168;-59
2021/06/03 14:20:02;;;;;;;15.35;7.57;;;;;;;;;;5081817;28;20124;-58
2021/06/03 14:22:28;;;;;;;11.73;6.93;;;;;;;;;;5075090;28;20142;-57
2021/06/03 14:24:58;;;;;;;12.85;8.10;;;;;;;;;;5061250;28;20033;-56
2021/06/03 14:27:27;;;;;;;12.27;7.35;;;;;;;;;;5070388;28;20048;-55
2021/06/03 14:29:55;;;;;;;15.15;6.93;;;;;;;;;;5081813;28;20049;-56
2021/06/03 14:32:22;;;;;;;14.95;8.48;;;;;;;;;;5080389;28;20036;-56
2021/06/03 14:34:48;;;;;;;10.75;6.45;;;;;;;;;;5080697;28;20048;-57
2021/06/03 14:37:15;;;;;;;9.93;6.05;;;;;;;;;;5077681;28;20029;-58
2021/06/03 14:39:48;;;;;;;13.10;6.10;;;;;;;;;;5082442;28;20047;-59
2021/06/03 14:42:41;;;;;;;9.50;5.10;;;;;;;;;;5074186;28;20151;-55
2021/06/03 14:45:16;;;;;;;13.45;6.07;;;;;;;;;;5060593;28;20163;-55
2021/06/03 14:47:42;;;;;;;14.48;5.22;;;;;;;;;;5064945;28;20041;-56